Time;durP1;ratioP1;P1;durP2;ratioP2;P2;SDS_P1;SDS_P2;PMS_P1;PMS_P2;Temp;Humidity;BMP_temperature;BMP_pressure;BME280_temperature;BME280_humidity;BME280_pressure;Samples;Min_cycle;Max_cycle;Signal;HPM_P1;HPM_P2
2022/10/03 00:00:11;;;;;;;9.37;4.10;;;;;;;7.92;100.00;99211.31;4159315;28;23491;-69
2022/10/03 00:02:56;;;;;;;14.10;4.47;;;;;;;7.93;100.00;99212.97;4162597;28;20528;-69
2022/10/03 00:05:51;;;;;;;16.90;4.90;;;;;;;7.88;100.00;99209.13;4171353;28;20256;-68
2022/10/03 00:08:38;;;;;;;9.60;4.40;;;;;;;7.86;100.00;99216.41;4167491;28;20316;-67
2022/10/03 00:11:23;;;;;;;12.63;4.73;;;;;;;7.85;100.00;99217.41;4174160;28;23082;-68
2022/10/03 00:14:13;;;;;;;11.23;4.83;;;;;;;7.91;100.00;99212.28;4168205;28;20319;-68
2022/10/03 00:16:51;;;;;;;10.73;4.60;;;;;;;7.89;100.00;99211.66;4163034;28;22759;-68
2022/10/03 00:19:42;;;;;;;11.27;5.00;;;;;;;7.91;100.00;99216.75;4163872;28;20277;-69
2022/10/03 00:22:20;;;;;;;15.73;6.37;;;;;;;7.92;100.00;99215.78;4179242;28;21530;-68
2022/10/03 00:25:12;;;;;;;14.40;4.50;;;;;;;7.93;100.00;99206.84;4157181;28;20306;-68
2022/10/03 00:27:46;;;;;;;14.57;4.90;;;;;;;7.91;100.00;99206.16;4162519;28;20231;-68
2022/10/03 00:30:19;;;;;;;13.97;4.93;;;;;;;7.92;100.00;99202.53;4161205;28;22805;-69
2022/10/03 00:33:10;;;;;;;11.30;4.27;;;;;;;7.92;100.00;99213.97;4161365;28;20257;-67
2022/10/03 00:36:03;;;;;;;10.03;4.13;;;;;;;8.04;100.00;99210.03;4173572;28;20238;-68
2022/10/03 00:38:48;;;;;;;8.73;4.00;;;;;;;8.07;100.00;99208.06;4165094;28;20489;-69
2022/10/03 00:41:21;;;;;;;13.37;4.73;;;;;;;8.00;100.00;99207.88;4165877;28;20415;-70
2022/10/03 00:44:24;;;;;;;15.70;4.47;;;;;;;8.02;100.00;99196.13;4162095;28;20335;-69
2022/10/03 00:47:31;;;;;;;17.40;5.33;;;;;;;8.01;100.00;99194.47;4163808;28;20234;-68
2022/10/03 00:50:06;;;;;;;12.60;5.30;;;;;;;8.02;100.00;99188.16;4167302;28;20416;-67
2022/10/03 00:52:50;;;;;;;9.70;4.77;;;;;;;8.11;100.00;99188.22;4156700;28;20347;-67
2022/10/03 00:55:26;;;;;;;14.27;4.77;;;;;;;8.10;100.00;99186.53;4161983;28;21620;-68
2022/10/03 00:58:11;;;;;;;15.07;5.53;;;;;;;8.03;100.00;99189.03;4165704;28;20230;-67
2022/10/03 01:00:40;;;;;;;13.60;5.60;;;;;;;8.12;100.00;99188.03;4165840;28;20236;-68
2022/10/03 01:03:26;;;;;;;15.77;5.60;;;;;;;8.12;100.00;99176.63;4166693;28;22284;-68
2022/10/03 01:05:55;;;;;;;17.27;5.67;;;;;;;8.13;100.00;99170.34;4162240;28;20239;-67
2022/10/03 01:08:46;;;;;;;16.13;6.07;;;;;;;8.11;100.00;99173.16;4167785;28;20840;-68
2022/10/03 01:11:35;;;;;;;15.07;5.83;;;;;;;8.07;100.00;99178.91;4165982;28;20341;-68
2022/10/03 01:14:20;;;;;;;22.47;6.20;;;;;;;8.11;100.00;99169.69;4149051;28;20235;-68
2022/10/03 01:17:16;;;;;;;15.80;5.67;;;;;;;8.16;100.00;99170.00;4185934;28;20262;-67
2022/10/03 01:20:01;;;;;;;16.63;5.90;;;;;;;8.15;100.00;99173.66;4172664;28;20566;-68
2022/10/03 01:22:50;;;;;;;18.80;6.03;;;;;;;8.19;100.00;99159.09;4158549;28;21464;-68
2022/10/03 01:25:36;;;;;;;12.70;5.70;;;;;;;8.18;100.00;99162.75;4174039;28;20315;-68
2022/10/03 01:31:33;;;;;;;16.17;6.40;;;;;;;8.22;100.00;99154.31;4167220;28;20365;-68
2022/10/03 01:34:07;;;;;;;16.37;6.87;;;;;;;8.25;100.00;99153.97;4166145;28;25594;-68
2022/10/03 01:37:01;;;;;;;20.63;6.67;;;;;;;8.26;100.00;99157.44;4157960;28;21657;-68
2022/10/03 01:39:33;;;;;;;17.90;6.80;;;;;;;8.29;100.00;99143.91;4157216;28;22708;-69
2022/10/03 01:42:16;;;;;;;21.47;6.87;;;;;;;8.24;100.00;99148.81;4159061;28;21149;-68
2022/10/03 01:44:43;;;;;;;15.40;7.43;;;;;;;8.28;100.00;99146.69;4161067;28;20595;-68
2022/10/03 01:47:19;;;;;;;15.60;7.77;;;;;;;8.31;100.00;99149.88;4169692;28;23864;-68
2022/10/03 01:50:14;;;;;;;19.03;7.80;;;;;;;8.27;100.00;99148.53;4151998;28;20293;-67
2022/10/03 01:53:20;;;;;;;22.40;8.40;;;;;;;8.29;100.00;99151.84;4152669;28;20270;-66
2022/10/03 01:56:03;;;;;;;18.80;8.93;;;;;;;8.30;100.00;99144.72;4172702;28;20293;-68
2022/10/03 01:58:51;;;;;;;16.00;8.73;;;;;;;8.30;100.00;99155.31;4161211;28;23621;-68
2022/10/03 02:01:20;;;;;;;19.10;8.30;;;;;;;8.29;100.00;99151.84;4165016;28;21054;-69
2022/10/03 02:04:10;;;;;;;18.57;8.50;;;;;;;8.28;100.00;99150.16;4164437;28;20364;-68
2022/10/03 02:07:12;;;;;;;16.90;8.10;;;;;;;8.25;100.00;99143.38;4173211;28;21094;-67
2022/10/03 02:09:58;;;;;;;17.63;8.67;;;;;;;8.34;100.00;99133.63;4110722;29;20285;-69
2022/10/03 02:12:34;;;;;;;18.50;7.97;;;;;;;8.34;100.00;99136.28;4168559;28;20252;-68
2022/10/03 02:15:04;;;;;;;21.77;8.37;;;;;;;8.37;100.00;99140.44;4155340;28;20345;-68
2022/10/03 02:17:54;;;;;;;22.73;7.60;;;;;;;8.35;100.00;99129.16;4165072;28;20337;-68
2022/10/03 02:20:26;;;;;;;15.77;8.37;;;;;;;8.39;100.00;99130.50;4164777;28;20315;-67
2022/10/03 02:22:55;;;;;;;17.73;8.50;;;;;;;8.35;100.00;99137.94;4164977;28;20324;-67
2022/10/03 02:25:50;;;;;;;14.83;7.50;;;;;;;8.39;100.00;99133.97;4165592;28;20231;-68
2022/10/03 02:28:45;;;;;;;13.30;7.70;;;;;;;8.47;100.00;99129.69;4162336;28;20257;-67
2022/10/03 02:31:47;;;;;;;16.70;8.23;;;;;;;8.43;100.00;99127.38;4179697;28;20648;-67
2022/10/03 02:34:25;;;;;;;19.07;8.67;;;;;;;8.45;100.00;99137.81;4162476;28;20387;-67
2022/10/03 02:37:26;;;;;;;19.43;8.90;;;;;;;8.44;100.00;99136.97;4163166;28;20805;-67
2022/10/03 02:40:11;;;;;;;17.93;8.87;;;;;;;8.49;100.00;99133.03;4169997;28;20430;-67
2022/10/03 02:43:05;;;;;;;13.53;8.13;;;;;;;8.47;100.00;99129.69;4162720;28;20768;-68
2022/10/03 02:45:53;;;;;;;16.03;8.13;;;;;;;8.48;100.00;99126.06;4170789;28;20364;-68
2022/10/03 02:48:37;;;;;;;14.77;8.17;;;;;;;8.52;100.00;99122.94;4167534;28;20247;-67
2022/10/03 02:51:38;;;;;;;14.57;7.80;;;;;;;8.53;100.00;99121.94;4170367;28;20250;-68
2022/10/03 02:54:19;;;;;;;13.70;7.63;;;;;;;8.47;100.00;99124.41;4177226;28;20412;-69
2022/10/03 02:57:24;;;;;;;17.87;7.27;;;;;;;8.51;100.00;99120.44;4163112;28;20420;-67
2022/10/03 03:00:17;;;;;;;15.57;7.53;;;;;;;8.51;100.00;99121.25;4124809;28;20712;-69
2022/10/03 03:03:21;;;;;;;14.63;6.87;;;;;;;8.57;100.00;99125.06;4163721;28;20230;-68
2022/10/03 03:06:09;;;;;;;14.57;7.63;;;;;;;8.54;100.00;99112.13;4171338;28;20283;-68
2022/10/03 03:09:15;;;;;;;16.93;7.37;;;;;;;8.60;100.00;99122.09;4164601;28;20412;-68
2022/10/03 03:11:58;;;;;;;16.73;6.73;;;;;;;8.59;100.00;99112.47;4152832;28;20253;-69
2022/10/03 03:15:18;;;;;;;15.17;7.80;;;;;;;8.55;100.00;99105.88;4158503;28;20234;-68
2022/10/03 03:18:03;;;;;;;16.10;7.10;;;;;;;8.60;100.00;99106.19;4159539;28;20803;-68
2022/10/03 03:20:56;;;;;;;16.07;7.10;;;;;;;8.56;100.00;99107.50;4151356;28;21717;-70
2022/10/03 03:23:40;;;;;;;13.17;6.53;;;;;;;8.59;100.00;99109.81;4159065;28;20369;-69
2022/10/03 03:26:18;;;;;;;15.70;7.37;;;;;;;8.61;100.00;99106.00;4161307;28;20241;-68
2022/10/03 03:28:50;;;;;;;14.43;7.70;;;;;;;8.64;100.00;99110.19;4160808;28;20238;-69
2022/10/03 03:31:30;;;;;;;12.73;6.73;;;;;;;8.62;100.00;99112.97;4168456;28;21095;-67
2022/10/03 03:34:20;;;;;;;15.90;7.30;;;;;;;8.72;100.00;99104.84;4166836;28;20661;-67
2022/10/03 03:36:54;;;;;;;19.93;7.57;;;;;;;8.68;100.00;99100.06;4158371;28;20257;-67
2022/10/03 03:39:49;;;;;;;19.00;8.37;;;;;;;8.65;100.00;99106.50;4154125;28;21618;-70
2022/10/03 03:43:09;;;;;;;18.67;7.10;;;;;;;8.65;100.00;99090.59;4159848;28;20703;-68
2022/10/03 03:45:45;;;;;;;13.10;7.40;;;;;;;8.65;100.00;99095.91;4119599;29;20244;-68
2022/10/03 03:48:37;;;;;;;15.97;7.73;;;;;;;8.62;100.00;99083.81;4142579;28;20242;-67
2022/10/03 03:51:26;;;;;;;15.70;7.60;;;;;;;8.62;100.00;99089.13;4180008;28;22330;-67
2022/10/03 03:54:30;;;;;;;13.17;7.57;;;;;;;8.63;100.00;99085.47;4171942;28;20241;-67
2022/10/03 03:57:27;;;;;;;14.83;7.53;;;;;;;8.63;100.00;99089.94;4172297;28;20226;-69
2022/10/03 03:59:56;;;;;;;14.33;8.30;;;;;;;8.61;100.00;99091.94;4181547;28;23454;-67
2022/10/03 04:02:24;;;;;;;13.70;7.13;;;;;;;8.68;100.00;99084.97;4169741;28;23102;-67
2022/10/03 04:05:07;;;;;;;14.77;7.37;;;;;;;8.65;100.00;99085.31;4166085;28;20234;-67
2022/10/03 04:07:52;;;;;;;14.43;7.23;;;;;;;8.71;100.00;99071.38;4156151;28;20341;-68
2022/10/03 04:10:32;;;;;;;13.10;7.23;;;;;;;8.69;100.00;99068.06;4161025;28;20243;-67
2022/10/03 04:13:23;;;;;;;18.10;8.17;;;;;;;8.74;100.00;99065.75;4168815;28;20301;-66
2022/10/03 04:18:56;;;;;;;16.93;7.93;;;;;;;8.74;100.00;99065.75;4180399;28;22021;-67
2022/10/03 04:19:14;;;;;;;20.10;8.50;;;;;;;8.75;100.00;99059.44;4171867;28;22015;-68
2022/10/03 04:21:58;;;;;;;15.43;6.93;;;;;;;8.77;100.00;99051.31;4177299;28;20995;-68
2022/10/03 04:24:45;;;;;;;15.53;7.77;;;;;;;8.80;100.00;99045.66;4145976;28;22530;-68
2022/10/03 04:27:53;;;;;;;14.90;7.57;;;;;;;8.81;100.00;99053.47;4165864;28;20248;-69
2022/10/03 04:30:50;;;;;;;15.10;7.63;;;;;;;8.77;100.00;99044.19;4170171;28;20274;-68
2022/10/03 04:33:36;;;;;;;15.60;7.63;;;;;;;8.75;100.00;99048.00;4170210;28;20234;-69
2022/10/03 04:36:21;;;;;;;19.00;8.37;;;;;;;8.69;100.00;99038.06;4175731;28;20253;-66
2022/10/03 04:39:19;;;;;;;15.77;7.63;;;;;;;8.66;100.00;99040.06;4169898;28;21680;-68
2022/10/03 04:42:02;;;;;;;14.97;7.67;;;;;;;8.62;100.00;99038.75;4177445;28;23633;-69
2022/10/03 04:44:49;;;;;;;22.63;8.57;;;;;;;8.64;100.00;99046.53;4159007;28;21722;-71
2022/10/03 04:47:21;;;;;;;17.03;8.27;;;;;;;8.62;100.00;99043.22;4183198;28;20238;-67
2022/10/03 04:50:02;;;;;;;19.57;8.83;;;;;;;8.60;100.00;99034.59;4161509;28;21242;-68
2022/10/03 04:52:49;;;;;;;19.17;8.40;;;;;;;8.60;100.00;99039.91;4156674;28;20459;-67
2022/10/03 04:55:39;;;;;;;16.60;7.53;;;;;;;8.62;100.00;99037.91;4158891;28;20451;-69
2022/10/03 04:58:43;;;;;;;20.13;8.10;;;;;;;8.64;100.00;99033.28;4177995;28;20770;-66
2022/10/03 05:01:16;;;;;;;16.53;7.30;;;;;;;8.70;100.00;99029.13;4169812;28;20231;-68
2022/10/03 05:04:09;;;;;;;16.03;8.10;;;;;;;8.71;100.00;99031.59;4149857;28;20318;-69
2022/10/03 05:07:03;;;;;;;15.67;8.80;;;;;;;8.74;100.00;99036.56;4174320;28;23579;-67
2022/10/03 05:09:54;;;;;;;19.27;8.13;;;;;;;8.74;100.00;99028.63;4190294;28;20242;-68
2022/10/03 05:12:39;;;;;;;16.17;9.20;;;;;;;8.74;100.00;99030.44;4184950;28;20242;-67
2022/10/03 05:15:25;;;;;;;21.43;9.70;;;;;;;8.74;100.00;99033.91;4160216;28;20249;-68
2022/10/03 05:18:07;;;;;;;20.10;9.70;;;;;;;8.73;100.00;99034.91;4173437;28;20247;-67
2022/10/03 05:20:43;;;;;;;18.77;9.47;;;;;;;8.75;100.00;99022.28;4159538;28;20230;-67
2022/10/03 05:23:18;;;;;;;25.57;10.57;;;;;;;8.79;100.00;99020.16;4154131;28;20319;-69
2022/10/03 05:26:04;;;;;;;18.10;9.13;;;;;;;8.78;100.00;99015.81;4153235;28;20246;-70
2022/10/03 05:29:09;;;;;;;21.57;9.50;;;;;;;8.84;100.00;99020.47;4172918;28;20360;-69
2022/10/03 05:32:00;;;;;;;25.67;10.40;;;;;;;8.86;100.00;99024.59;4183999;28;20239;-68
2022/10/03 05:34:37;;;;;;;25.47;10.10;;;;;;;8.87;100.00;99018.31;4168465;28;20238;-69
2022/10/03 05:37:28;;;;;;;18.40;10.70;;;;;;;8.84;100.00;99018.63;4165036;28;21111;-69
2022/10/03 05:39:57;;;;;;;21.30;9.97;;;;;;;8.94;100.00;99020.28;4181581;28;20319;-68
2022/10/03 05:42:34;;;;;;;19.37;11.00;;;;;;;8.90;100.00;99019.81;4159503;28;20420;-68
2022/10/03 05:45:23;;;;;;;18.47;9.10;;;;;;;8.96;100.00;99010.31;4192354;28;22897;-66
2022/10/03 05:48:16;;;;;;;20.83;10.63;;;;;;;8.97;100.00;99012.00;4201272;28;20245;-67
2022/10/03 05:51:07;;;;;;;20.30;9.87;;;;;;;8.98;100.00;99025.06;4167373;28;20245;-66
2022/10/03 05:54:17;;;;;;;23.03;9.73;;;;;;;9.03;100.00;99017.44;4195401;28;20243;-68
2022/10/03 05:56:56;;;;;;;18.97;9.87;;;;;;;9.06;100.00;99022.41;4176506;28;21254;-67
2022/10/03 05:59:50;;;;;;;20.37;9.67;;;;;;;9.08;100.00;99025.72;4172581;28;25983;-69
2022/10/03 06:02:31;;;;;;;23.07;9.93;;;;;;;9.13;100.00;99019.91;4171164;28;20256;-66
2022/10/03 06:05:14;;;;;;;17.57;9.63;;;;;;;9.15;100.00;99025.84;4174486;28;21072;-65
2022/10/03 06:08:05;;;;;;;18.57;9.63;;;;;;;9.16;100.00;99024.88;4167926;28;20239;-66
2022/10/03 06:10:49;;;;;;;15.30;8.77;;;;;;;9.20;100.00;99018.22;4191836;28;20232;-66
2022/10/03 06:13:29;;;;;;;17.60;9.27;;;;;;;9.25;100.00;99017.72;4170986;28;20241;-69
2022/10/03 06:16:01;;;;;;;21.37;9.73;;;;;;;9.22;100.00;99012.72;4193907;28;20298;-67
2022/10/03 06:19:02;;;;;;;17.30;10.53;;;;;;;9.25;100.00;99005.28;4180521;28;20303;-66
2022/10/03 06:21:57;;;;;;;18.07;9.23;;;;;;;9.28;100.00;99002.25;4168650;28;21520;-66
2022/10/03 06:24:59;;;;;;;19.40;9.83;;;;;;;9.34;100.00;99005.22;4197559;28;20356;-64
2022/10/03 06:28:03;;;;;;;17.20;8.87;;;;;;;9.34;100.00;98999.91;4194769;28;20308;-67
2022/10/03 06:30:45;;;;;;;20.70;8.90;;;;;;;9.36;100.00;98997.91;4168403;28;22635;-68
2022/10/03 06:33:39;;;;;;;14.73;7.70;;;;;;;9.41;100.00;99000.88;4179883;28;21830;-64
2022/10/03 06:36:43;;;;;;;16.83;7.40;;;;;;;9.34;100.00;99000.75;4179745;28;20349;-66
2022/10/03 06:39:43;;;;;;;17.47;6.77;;;;;;;9.32;100.00;98993.94;4219794;28;20238;-64
2022/10/03 06:42:20;;;;;;;13.60;6.57;;;;;;;9.29;100.00;99001.28;4181284;28;20752;-68
2022/10/03 06:45:01;;;;;;;14.10;7.33;;;;;;;9.29;100.00;98998.63;4183416;28;20411;-68
2022/10/03 06:47:40;;;;;;;16.13;7.23;;;;;;;9.28;100.00;98994.31;4164432;28;22999;-68
2022/10/03 06:50:12;;;;;;;9.23;6.00;;;;;;;9.26;100.00;98998.13;4184076;28;20425;-68
2022/10/03 06:52:48;;;;;;;15.83;6.47;;;;;;;9.23;100.00;98994.00;4161970;29;23028;-66
2022/10/03 06:56:01;;;;;;;12.30;6.07;;;;;;;9.24;100.00;98998.28;4192801;28;20298;-67
2022/10/03 06:58:57;;;;;;;13.40;6.30;;;;;;;9.26;100.00;98996.28;4260438;28;22507;-68
2022/10/03 07:02:23;;;;;;;13.90;5.67;;;;;;;9.25;100.00;98996.50;4180843;29;20296;-67
2022/10/03 07:05:03;;;;;;;8.67;5.43;;;;;;;9.26;100.00;99006.91;4139545;29;20878;-66
2022/10/03 07:07:35;;;;;;;12.07;5.40;;;;;;;9.27;100.00;99005.06;4116985;29;20240;-67
2022/10/03 07:10:12;;;;;;;8.50;4.87;;;;;;;9.32;100.00;98996.59;4155177;29;20289;-66
2022/10/03 07:13:14;;;;;;;8.53;4.87;;;;;;;9.34;100.00;98997.25;4164774;29;21477;-67
2022/10/03 07:15:58;;;;;;;9.83;4.50;;;;;;;9.36;100.00;98995.25;4171585;28;20378;-69
2022/10/03 07:19:15;;;;;;;12.00;5.03;;;;;;;9.39;100.00;98998.41;4160349;28;21198;-67
2022/10/03 07:22:23;;;;;;;10.57;4.67;;;;;;;9.41;100.00;98992.91;4188568;28;20255;-68
2022/10/03 07:25:27;;;;;;;10.83;4.00;;;;;;;9.49;100.00;98998.19;4174748;28;21199;-67
2022/10/03 07:28:03;;;;;;;8.27;4.53;;;;;;;9.54;100.00;99005.66;4171008;28;20235;-64
2022/10/03 07:30:54;;;;;;;8.57;4.17;;;;;;;9.53;100.00;99007.47;4156112;29;20239;-64
2022/10/03 07:33:36;;;;;;;7.93;4.40;;;;;;;9.59;100.00;99000.63;4171385;29;20288;-65
2022/10/03 07:39:47;;;;;;;9.60;4.97;;;;;;;10.06;100.00;98999.69;4205942;28;20238;-68
2022/10/03 07:42:55;;;;;;;8.33;4.03;;;;;;;10.21;100.00;98997.06;4189587;28;20726;-68
2022/10/03 07:46:03;;;;;;;9.87;3.40;;;;;;;10.22;100.00;99004.88;4178533;29;20266;-67
2022/10/03 07:49:06;;;;;;;9.13;3.60;;;;;;;10.09;100.00;99002.81;4143363;28;20248;-66
2022/10/03 07:51:44;;;;;;;6.90;3.50;;;;;;;10.19;100.00;99015.06;4184275;28;22690;-66
2022/10/03 07:54:44;;;;;;;9.03;3.10;;;;;;;10.30;100.00;99002.19;4180908;29;22094;-66
2022/10/03 07:57:42;;;;;;;6.70;2.93;;;;;;;10.11;100.00;98992.00;4146980;28;21735;-64
2022/10/03 08:00:21;;;;;;;5.00;2.90;;;;;;;10.06;100.00;99008.47;4167445;28;22529;-65
2022/10/03 08:03:14;;;;;;;5.70;2.70;;;;;;;10.11;100.00;99019.44;4190571;28;20239;-65
2022/10/03 08:06:03;;;;;;;6.30;2.90;;;;;;;10.14;100.00;99016.41;4164329;29;20240;-66
2022/10/03 08:09:06;;;;;;;6.13;2.73;;;;;;;10.10;100.00;99023.06;4166211;28;20347;-66
2022/10/03 08:12:21;;;;;;;7.00;2.87;;;;;;;10.13;100.00;99012.06;4153860;28;20310;-66
2022/10/03 08:15:03;;;;;;;8.93;2.70;;;;;;;10.17;100.00;99007.25;4109722;29;20409;-66
2022/10/03 08:17:49;;;;;;;6.37;2.80;;;;;;;10.15;100.00;99011.91;4169384;28;22072;-67
2022/10/03 08:20:39;;;;;;;6.07;3.00;;;;;;;10.18;100.00;99018.69;4154395;28;20320;-65
2022/10/03 08:23:43;;;;;;;4.90;2.77;;;;;;;10.26;100.00;99016.81;4180190;28;23753;-65
2022/10/03 08:26:40;;;;;;;6.13;2.70;;;;;;;10.35;100.00;99012.31;4159908;28;20235;-64
2022/10/03 08:29:20;;;;;;;5.77;2.50;;;;;;;10.42;100.00;99001.75;4202084;29;23686;-66
2022/10/03 08:32:16;;;;;;;7.70;2.20;;;;;;;10.43;100.00;98998.94;4164262;28;21591;-64
2022/10/03 08:35:04;;;;;;;4.80;2.13;;;;;;;10.36;100.00;99005.97;4170017;28;20868;-64
2022/10/03 08:38:00;;;;;;;5.80;2.23;;;;;;;10.31;100.00;99008.34;4174763;28;20252;-64
2022/10/03 08:41:12;;;;;;;5.87;2.40;;;;;;;10.32;100.00;99002.84;4191802;28;20516;-66
2022/10/03 08:44:03;;;;;;;6.63;2.57;;;;;;;10.38;100.00;99011.13;4166735;28;20235;-64
2022/10/03 08:47:07;;;;;;;6.40;2.27;;;;;;;10.33;100.00;99009.81;4162387;28;20291;-64
2022/10/03 08:49:55;;;;;;;4.27;2.63;;;;;;;10.34;100.00;99007.97;4174867;28;20244;-63
2022/10/03 08:53:01;;;;;;;6.93;2.83;;;;;;;10.36;100.00;98998.00;4176841;28;20239;-64
2022/10/03 08:56:04;;;;;;;6.50;2.40;;;;;;;10.32;100.00;99004.66;4157377;28;21813;-65
2022/10/03 08:58:55;;;;;;;13.40;3.67;;;;;;;10.38;100.00;99021.75;4168626;28;20716;-65
2022/10/03 09:02:00;;;;;;;6.57;2.73;;;;;;;10.37;100.00;99015.59;4179217;28;20589;-63
2022/10/03 09:04:38;;;;;;;5.10;2.60;;;;;;;10.47;100.00;99013.53;4158034;28;20359;-63
2022/10/03 09:07:35;;;;;;;7.87;2.80;;;;;;;10.52;100.00;99031.59;4156650;28;20240;-62
2022/10/03 09:10:41;;;;;;;8.93;2.60;;;;;;;10.44;100.00;99023.69;4175500;28;20234;-64
2022/10/03 09:13:14;;;;;;;6.77;2.50;;;;;;;10.47;100.00;99040.13;4168856;28;20235;-66
2022/10/03 09:16:05;;;;;;;6.33;2.53;;;;;;;10.44;100.00;99029.84;4164922;28;20287;-64
2022/10/03 09:18:53;;;;;;;6.63;2.80;;;;;;;10.41;100.00;99038.16;4170695;28;20247;-67
2022/10/03 09:21:38;;;;;;;12.77;3.20;;;;;;;10.34;100.00;99047.84;4159947;28;20237;-65
2022/10/03 09:24:17;;;;;;;4.63;2.83;;;;;;;10.26;100.00;99034.59;4176316;28;20554;-65
2022/10/03 09:27:24;;;;;;;7.13;3.30;;;;;;;10.21;100.00;99035.13;4163131;28;21051;-64
2022/10/03 09:30:35;;;;;;;5.80;2.93;;;;;;;10.24;100.00;99039.28;4162063;28;20249;-66
2022/10/03 09:33:23;;;;;;;6.87;3.13;;;;;;;10.24;100.00;99040.09;4147530;28;21118;-65
2022/10/03 09:36:10;;;;;;;5.30;3.30;;;;;;;10.20;100.00;99041.44;4165481;28;20240;-64
2022/10/03 09:38:57;;;;;;;8.93;3.83;;;;;;;10.22;100.00;99051.91;4176856;28;20246;-66
2022/10/03 09:42:01;;;;;;;7.27;3.67;;;;;;;10.27;100.00;99057.53;4167713;28;20258;-66
2022/10/03 09:44:39;;;;;;;6.80;3.27;;;;;;;10.42;100.00;99062.91;4170155;28;20403;-65
2022/10/03 09:47:29;;;;;;;9.37;3.40;;;;;;;10.50;100.00;99069.00;4165897;28;26064;-68
2022/10/03 09:50:35;;;;;;;5.20;3.40;;;;;;;10.47;100.00;99072.03;4162390;28;21725;-65
2022/10/03 09:53:31;;;;;;;11.30;3.63;;;;;;;10.53;100.00;99071.31;4171720;28;20317;-67
2022/10/03 09:56:33;;;;;;;5.63;3.27;;;;;;;10.59;100.00;99071.63;4156499;28;20235;-66
2022/10/03 09:59:23;;;;;;;7.37;3.50;;;;;;;10.60;100.00;99073.25;4192787;28;20235;-67
2022/10/03 10:02:13;;;;;;;5.67;2.97;;;;;;;10.73;100.00;99060.19;4180686;28;20234;-65
2022/10/03 10:05:11;;;;;;;5.77;3.20;;;;;;;10.89;100.00;99070.69;4176606;28;22249;-66
2022/10/03 10:08:00;;;;;;;8.23;3.00;;;;;;;10.92;100.00;99075.63;4182558;28;20551;-68
2022/10/03 10:10:50;;;;;;;8.40;2.80;;;;;;;10.95;100.00;99085.91;4173110;28;22471;-67
2022/10/03 10:13:54;;;;;;;4.70;3.07;;;;;;;10.82;100.00;99085.72;4161697;28;23443;-64
2022/10/03 10:17:01;;;;;;;5.20;3.23;;;;;;;10.69;100.00;99096.94;4161710;28;20238;-66
2022/10/03 10:19:28;;;;;;;4.90;3.17;;;;;;;10.67;100.00;99095.47;4167152;28;20637;-66
2022/10/03 10:22:26;;;;;;;5.50;3.40;;;;;;;10.57;100.00;99104.53;4169077;28;20423;-67
2022/10/03 10:25:08;;;;;;;7.43;3.87;;;;;;;10.49;100.00;99106.44;4185123;28;20482;-66
2022/10/03 10:28:02;;;;;;;6.73;3.80;;;;;;;10.49;100.00;99107.25;4165789;28;20238;-66
2022/10/03 10:31:07;;;;;;;8.87;4.33;;;;;;;10.43;100.00;99110.63;4165194;28;20329;-67
2022/10/03 10:33:55;;;;;;;7.60;3.80;;;;;;;10.39;100.00;99111.97;4166690;28;20239;-66
2022/10/03 10:37:00;;;;;;;7.07;3.60;;;;;;;10.37;100.00;99113.97;4201957;28;20304;-68
2022/10/03 10:39:33;;;;;;;6.67;3.30;;;;;;;10.32;100.00;99121.66;4214233;28;20244;-68
2022/10/03 10:42:17;;;;;;;6.80;3.80;;;;;;;10.33;100.00;99118.00;4173373;28;20785;-65
2022/10/03 10:45:13;;;;;;;4.87;3.07;;;;;;;10.25;100.00;99123.34;4174282;28;20230;-65
2022/10/03 10:47:47;;;;;;;4.27;2.67;;;;;;;10.26;100.00;99144.44;4154480;28;20599;-68
2022/10/03 10:50:24;;;;;;;4.43;2.63;;;;;;;10.38;100.00;99147.56;4162361;28;22449;-66
2022/10/03 10:53:27;;;;;;;5.03;2.80;;;;;;;10.41;100.00;99139.22;4155285;28;20519;-65
2022/10/03 10:56:13;;;;;;;5.90;2.47;;;;;;;10.46;100.00;99149.31;4151474;28;20262;-65
2022/10/03 10:58:43;;;;;;;6.17;1.93;;;;;;;10.40;100.00;99150.06;4151082;28;20258;-66
2022/10/03 11:01:51;;;;;;;4.47;2.00;;;;;;;10.45;100.00;99160.97;4150499;28;20243;-67
2022/10/03 11:04:51;;;;;;;3.63;1.57;;;;;;;10.52;100.00;99161.94;4152667;29;20252;-67
2022/10/03 11:07:55;;;;;;;2.33;1.40;;;;;;;10.62;100.00;99181.16;4178892;28;20238;-67
2022/10/03 11:10:34;;;;;;;1.20;0.87;;;;;;;10.72;100.00;99176.44;4243323;28;20245;-67
2022/10/03 11:13:17;;;;;;;1.37;0.90;;;;;;;10.88;100.00;99180.78;4163941;28;20270;-67
2022/10/03 11:16:01;;;;;;;1.07;0.80;;;;;;;11.14;100.00;99192.91;4163659;28;20711;-67
2022/10/03 11:19:03;;;;;;;0.60;0.60;;;;;;;11.36;100.00;99204.56;4177187;29;20331;-66
2022/10/03 11:21:45;;;;;;;6.63;0.70;;;;;;;11.57;100.00;99203.84;4156582;28;20242;-68
2022/10/03 11:24:45;;;;;;;2.20;0.87;;;;;;;11.64;100.00;99218.09;4166872;28;25043;-67
2022/10/03 11:27:35;;;;;;;2.87;1.00;;;;;;;11.70;99.22;99217.34;4166813;28;21156;-66
2022/10/03 11:30:39;;;;;;;3.37;1.20;;;;;;;11.66;94.06;99232.06;4164782;28;21480;-66
2022/10/03 11:33:48;;;;;;;1.30;0.70;;;;;;;11.62;90.13;99228.94;4161635;28;20242;-69
2022/10/03 11:36:47;;;;;;;3.07;0.90;;;;;;;11.74;90.99;99242.63;4152443;28;20344;-69
2022/10/03 11:39:54;;;;;;;2.37;0.80;;;;;;;12.12;88.72;99241.78;4224980;28;20621;-68
2022/10/03 11:42:38;;;;;;;2.07;1.13;;;;;;;12.27;83.72;99239.94;4185055;28;20233;-69
2022/10/03 11:45:15;;;;;;;3.00;1.00;;;;;;;12.46;79.53;99249.22;4175413;28;20239;-69
2022/10/03 11:48:12;;;;;;;1.80;0.90;;;;;;;12.41;75.06;99247.09;4158865;28;20360;-68
2022/10/03 11:50:42;;;;;;;2.40;0.93;;;;;;;12.43;75.51;99260.22;4177367;28;21527;-71
2022/10/03 11:53:45;;;;;;;4.80;1.20;;;;;;;12.67;74.78;99251.09;4196488;28;21860;-69
2022/10/03 11:56:21;;;;;;;2.00;0.70;;;;;;;12.73;77.29;99254.84;4172703;28;20294;-68
2022/10/03 11:59:21;;;;;;;2.27;1.07;;;;;;;12.52;73.90;99250.28;4194635;28;20255;-73
2022/10/03 12:02:29;;;;;;;1.63;0.73;;;;;;;12.68;75.02;99258.91;4172585;28;20475;-71
2022/10/03 12:05:24;;;;;;;6.27;1.03;;;;;;;12.76;71.70;99266.00;4195537;28;20258;-68
2022/10/03 12:11:32;;;;;;;2.97;0.83;;;;;;;13.10;69.80;99251.94;4192849;28;20514;-69
2022/10/03 12:14:18;;;;;;;1.70;0.90;;;;;;;13.08;70.78;99274.53;4211072;28;20291;-70
2022/10/03 12:17:15;;;;;;;2.10;1.03;;;;;;;13.05;68.70;99258.91;4212345;28;20235;-68
2022/10/03 12:19:54;;;;;;;3.93;1.30;;;;;;;13.20;68.39;99270.34;4187698;28;20246;-68
2022/10/03 12:22:48;;;;;;;1.60;0.80;;;;;;;13.40;65.94;99273.25;4235551;28;20239;-69
2022/10/03 12:25:20;;;;;;;2.53;1.20;;;;;;;13.84;66.18;99282.03;4199065;28;20666;-66
2022/10/03 12:28:01;;;;;;;1.63;0.80;;;;;;;14.10;63.84;99273.38;4184704;28;20698;-68
2022/10/03 12:30:46;;;;;;;2.87;1.00;;;;;;;13.89;61.67;99275.06;4196699;28;23463;-69
2022/10/03 12:33:34;;;;;;;2.60;0.77;;;;;;;14.03;59.77;99288.53;4182851;28;20260;-69
2022/10/03 12:36:27;;;;;;;2.87;0.90;;;;;;;14.06;59.98;99301.53;4166766;28;20239;-70
2022/10/03 12:39:30;;;;;;;4.37;0.93;;;;;;;14.10;60.54;99302.78;4184931;28;20235;-76
2022/10/03 12:42:25;;;;;;;2.43;1.00;;;;;;;14.12;61.40;99308.78;4175157;28;21052;-70
2022/10/03 12:44:58;;;;;;;5.57;0.80;;;;;;;14.06;60.21;99309.53;4174403;28;20235;-69
2022/10/03 12:47:39;;;;;;;6.67;1.37;;;;;;;14.26;59.19;99310.50;4181763;28;20246;-71
2022/10/03 12:50:56;;;;;;;2.60;0.70;;;;;;;14.44;55.76;99307.28;4175247;28;20518;-71
2022/10/03 12:53:29;;;;;;;4.13;1.00;;;;;;;14.35;55.84;99320.03;4178444;28;20639;-66
2022/10/03 12:56:24;;;;;;;6.47;1.00;;;;;;;14.08;55.45;99331.56;4147593;28;20628;-67
2022/10/03 12:59:14;;;;;;;3.57;0.80;;;;;;;14.11;56.14;99333.84;4186755;28;20260;-67
2022/10/03 13:01:58;;;;;;;5.10;0.93;;;;;;;13.90;54.94;99342.75;4171529;28;25746;-68
2022/10/03 13:04:33;;;;;;;3.93;0.63;;;;;;;13.86;52.47;99352.16;4170298;28;20267;-70
2022/10/03 13:07:25;;;;;;;5.37;1.27;;;;;;;13.91;51.72;99337.22;4173155;28;20391;-68
2022/10/03 13:10:18;;;;;;;4.63;0.80;;;;;;;13.99;52.39;99346.13;4198118;28;20234;-69
2022/10/03 13:12:53;;;;;;;4.20;0.60;;;;;;;14.07;51.16;99356.66;4188673;28;20322;-67
2022/10/03 13:15:39;;;;;;;3.40;0.90;;;;;;;13.90;51.13;99354.28;4161024;28;20238;-69
2022/10/03 13:18:43;;;;;;;4.00;1.23;;;;;;;13.95;52.21;99356.38;4181739;28;24020;-65